sensor_id;sensor_type;location;lat;lon;timestamp;P1;durP1;ratioP1;P2;durP2;ratioP2
14849;SDS011;7517;48.400;11.770;2022-12-10T00:01:21;9.97;;;7.77;;
14849;SDS011;7517;48.400;11.770;2022-12-10T00:03:50;11.70;;;8.93;;
14849;SDS011;7517;48.400;11.770;2022-12-10T00:06:18;12.07;;;8.17;;
14849;SDS011;7517;48.400;11.770;2022-12-10T00:08:49;10.10;;;7.70;;
14849;SDS011;7517;48.400;11.770;2022-12-10T00:11:17;10.07;;;8.07;;
14849;SDS011;7517;48.400;11.770;2022-12-10T00:13:48;11.50;;;8.23;;
14849;SDS011;7517;48.400;11.770;2022-12-10T00:16:17;9.83;;;8.00;;
14849;SDS011;7517;48.400;11.770;2022-12-10T00:18:47;11.00;;;8.10;;
14849;SDS011;7517;48.400;11.770;2022-12-10T00:21:16;11.53;;;8.37;;
14849;SDS011;7517;48.400;11.770;2022-12-10T00:23:46;12.00;;;8.87;;
14849;SDS011;7517;48.400;11.770;2022-12-10T00:26:16;9.30;;;7.70;;
14849;SDS011;7517;48.400;11.770;2022-12-10T00:28:45;11.27;;;8.03;;
14849;SDS011;7517;48.400;11.770;2022-12-10T00:31:16;10.10;;;7.80;;
14849;SDS011;7517;48.400;11.770;2022-12-10T00:33:45;10.90;;;8.23;;
14849;SDS011;7517;48.400;11.770;2022-12-10T00:36:14;11.27;;;8.10;;
14849;SDS011;7517;48.400;11.770;2022-12-10T00:38:44;9.43;;;8.27;;
14849;SDS011;7517;48.400;11.770;2022-12-10T00:41:12;10.73;;;7.93;;
14849;SDS011;7517;48.400;11.770;2022-12-10T00:43:40;11.33;;;8.37;;
14849;SDS011;7517;48.400;11.770;2022-12-10T00:46:10;12.37;;;8.33;;
14849;SDS011;7517;48.400;11.770;2022-12-10T00:48:37;14.20;;;8.47;;
14849;SDS011;7517;48.400;11.770;2022-12-10T00:51:05;12.60;;;8.93;;
14849;SDS011;7517;48.400;11.770;2022-12-10T00:53:36;9.80;;;8.00;;
14849;SDS011;7517;48.400;11.770;2022-12-10T00:56:05;10.83;;;8.10;;
14849;SDS011;7517;48.400;11.770;2022-12-10T00:58:35;12.33;;;8.30;;
14849;SDS011;7517;48.400;11.770;2022-12-10T01:01:07;11.40;;;7.97;;
14849;SDS011;7517;48.400;11.770;2022-12-10T01:03:39;10.53;;;8.10;;
14849;SDS011;7517;48.400;11.770;2022-12-10T01:06:11;9.90;;;8.20;;
14849;SDS011;7517;48.400;11.770;2022-12-10T01:08:41;11.03;;;8.50;;
14849;SDS011;7517;48.400;11.770;2022-12-10T01:11:10;11.40;;;8.97;;
14849;SDS011;7517;48.400;11.770;2022-12-10T01:13:39;11.67;;;8.57;;
14849;SDS011;7517;48.400;11.770;2022-12-10T01:16:08;11.83;;;8.33;;
14849;SDS011;7517;48.400;11.770;2022-12-10T01:18:39;14.13;;;9.60;;
14849;SDS011;7517;48.400;11.770;2022-12-10T01:21:07;11.63;;;8.80;;
14849;SDS011;7517;48.400;11.770;2022-12-10T01:23:39;10.53;;;8.20;;
14849;SDS011;7517;48.400;11.770;2022-12-10T01:26:10;12.40;;;8.47;;
14849;SDS011;7517;48.400;11.770;2022-12-10T01:28:40;12.00;;;8.67;;
14849;SDS011;7517;48.400;11.770;2022-12-10T01:31:09;12.93;;;9.20;;
14849;SDS011;7517;48.400;11.770;2022-12-10T01:33:39;11.47;;;8.70;;
14849;SDS011;7517;48.400;11.770;2022-12-10T01:36:08;10.63;;;8.40;;
14849;SDS011;7517;48.400;11.770;2022-12-10T01:38:38;10.83;;;8.40;;
14849;SDS011;7517;48.400;11.770;2022-12-10T01:41:06;10.80;;;8.30;;
14849;SDS011;7517;48.400;11.770;2022-12-10T01:43:53;10.97;;;8.97;;
14849;SDS011;7517;48.400;11.770;2022-12-10T01:46:26;11.07;;;8.60;;
14849;SDS011;7517;48.400;11.770;2022-12-10T01:48:56;11.70;;;8.43;;
14849;SDS011;7517;48.400;11.770;2022-12-10T01:51:25;12.40;;;8.93;;
14849;SDS011;7517;48.400;11.770;2022-12-10T01:53:55;12.07;;;8.73;;
14849;SDS011;7517;48.400;11.770;2022-12-10T01:56:23;12.03;;;8.67;;
14849;SDS011;7517;48.400;11.770;2022-12-10T01:58:51;11.30;;;8.73;;
14849;SDS011;7517;48.400;11.770;2022-12-10T02:01:26;10.43;;;8.93;;
14849;SDS011;7517;48.400;11.770;2022-12-10T02:04:06;10.70;;;8.30;;
14849;SDS011;7517;48.400;11.770;2022-12-10T02:06:46;11.73;;;8.17;;
14849;SDS011;7517;48.400;11.770;2022-12-10T02:09:26;14.57;;;9.43;;
14849;SDS011;7517;48.400;11.770;2022-12-10T02:12:05;10.07;;;7.80;;
14849;SDS011;7517;48.400;11.770;2022-12-10T02:14:43;12.50;;;9.20;;
14849;SDS011;7517;48.400;11.770;2022-12-10T02:17:23;12.50;;;8.27;;
14849;SDS011;7517;48.400;11.770;2022-12-10T02:19:59;10.73;;;8.20;;
14849;SDS011;7517;48.400;11.770;2022-12-10T02:22:34;11.33;;;9.10;;
14849;SDS011;7517;48.400;11.770;2022-12-10T02:25:07;10.50;;;8.30;;
14849;SDS011;7517;48.400;11.770;2022-12-10T02:27:40;11.87;;;8.23;;
14849;SDS011;7517;48.400;11.770;2022-12-10T02:30:16;11.70;;;8.33;;
14849;SDS011;7517;48.400;11.770;2022-12-10T02:32:44;10.87;;;8.47;;
14849;SDS011;7517;48.400;11.770;2022-12-10T02:35:16;10.73;;;8.50;;
14849;SDS011;7517;48.400;11.770;2022-12-10T02:37:51;11.33;;;8.67;;
14849;SDS011;7517;48.400;11.770;2022-12-10T02:40:23;10.87;;;8.37;;
14849;SDS011;7517;48.400;11.770;2022-12-10T02:42:56;11.83;;;8.87;;
14849;SDS011;7517;48.400;11.770;2022-12-10T02:45:25;9.53;;;7.87;;
14849;SDS011;7517;48.400;11.770;2022-12-10T02:47:57;11.60;;;8.80;;
14849;SDS011;7517;48.400;11.770;2022-12-10T02:50:27;11.97;;;8.30;;
14849;SDS011;7517;48.400;11.770;2022-12-10T02:52:55;11.00;;;8.80;;
14849;SDS011;7517;48.400;11.770;2022-12-10T02:55:22;11.23;;;8.77;;
14849;SDS011;7517;48.400;11.770;2022-12-10T02:57:53;11.43;;;8.73;;
14849;SDS011;7517;48.400;11.770;2022-12-10T03:00:43;9.40;;;7.83;;
14849;SDS011;7517;48.400;11.770;2022-12-10T03:03:25;11.87;;;9.13;;
14849;SDS011;7517;48.400;11.770;2022-12-10T03:06:06;11.80;;;8.67;;
14849;SDS011;7517;48.400;11.770;2022-12-10T03:08:44;10.93;;;8.27;;
14849;SDS011;7517;48.400;11.770;2022-12-10T03:11:17;12.50;;;8.47;;
14849;SDS011;7517;48.400;11.770;2022-12-10T03:13:49;11.07;;;8.77;;
14849;SDS011;7517;48.400;11.770;2022-12-10T03:16:23;10.27;;;8.23;;
14849;SDS011;7517;48.400;11.770;2022-12-10T03:18:55;11.43;;;8.53;;
14849;SDS011;7517;48.400;11.770;2022-12-10T03:21:29;11.97;;;8.70;;
14849;SDS011;7517;48.400;11.770;2022-12-10T03:24:00;12.27;;;9.57;;
14849;SDS011;7517;48.400;11.770;2022-12-10T03:26:28;11.60;;;9.00;;
14849;SDS011;7517;48.400;11.770;2022-12-10T03:28:57;13.73;;;9.43;;
14849;SDS011;7517;48.400;11.770;2022-12-10T03:31:32;11.50;;;8.60;;
14849;SDS011;7517;48.400;11.770;2022-12-10T03:34:01;12.27;;;9.47;;
14849;SDS011;7517;48.400;11.770;2022-12-10T03:36:30;12.50;;;9.17;;
14849;SDS011;7517;48.400;11.770;2022-12-10T03:38:59;11.90;;;9.20;;
14849;SDS011;7517;48.400;11.770;2022-12-10T03:41:27;13.03;;;9.03;;
14849;SDS011;7517;48.400;11.770;2022-12-10T03:43:55;13.40;;;9.83;;
14849;SDS011;7517;48.400;11.770;2022-12-10T03:46:25;13.47;;;9.57;;
14849;SDS011;7517;48.400;11.770;2022-12-10T03:48:56;13.23;;;9.40;;
14849;SDS011;7517;48.400;11.770;2022-12-10T03:51:25;17.63;;;9.13;;
14849;SDS011;7517;48.400;11.770;2022-12-10T03:53:53;13.50;;;9.57;;
14849;SDS011;7517;48.400;11.770;2022-12-10T03:56:20;13.70;;;9.73;;
14849;SDS011;7517;48.400;11.770;2022-12-10T03:58:48;11.33;;;9.77;;
14849;SDS011;7517;48.400;11.770;2022-12-10T04:01:15;14.93;;;10.03;;
14849;SDS011;7517;48.400;11.770;2022-12-10T04:03:43;12.13;;;8.63;;
14849;SDS011;7517;48.400;11.770;2022-12-10T04:06:13;13.63;;;9.67;;
14849;SDS011;7517;48.400;11.770;2022-12-10T04:08:43;15.10;;;9.63;;
14849;SDS011;7517;48.400;11.770;2022-12-10T04:11:12;12.40;;;8.70;;
14849;SDS011;7517;48.400;11.770;2022-12-10T04:13:41;12.50;;;9.13;;
14849;SDS011;7517;48.400;11.770;2022-12-10T04:16:27;14.50;;;9.13;;
14849;SDS011;7517;48.400;11.770;2022-12-10T04:18:57;12.17;;;8.30;;
14849;SDS011;7517;48.400;11.770;2022-12-10T04:21:29;16.00;;;10.03;;
14849;SDS011;7517;48.400;11.770;2022-12-10T04:24:16;10.77;;;8.43;;
14849;SDS011;7517;48.400;11.770;2022-12-10T04:27:04;14.23;;;9.13;;
14849;SDS011;7517;48.400;11.770;2022-12-10T04:29:36;12.77;;;8.87;;
14849;SDS011;7517;48.400;11.770;2022-12-10T04:32:03;13.67;;;9.43;;
14849;SDS011;7517;48.400;11.770;2022-12-10T04:34:32;10.97;;;9.37;;
14849;SDS011;7517;48.400;11.770;2022-12-10T04:37:01;11.43;;;9.00;;
14849;SDS011;7517;48.400;11.770;2022-12-10T04:39:29;13.53;;;9.43;;
14849;SDS011;7517;48.400;11.770;2022-12-10T04:41:56;11.77;;;9.40;;
14849;SDS011;7517;48.400;11.770;2022-12-10T04:44:25;12.70;;;9.30;;
14849;SDS011;7517;48.400;11.770;2022-12-10T04:46:53;13.43;;;9.17;;
14849;SDS011;7517;48.400;11.770;2022-12-10T04:49:20;14.03;;;9.97;;
14849;SDS011;7517;48.400;11.770;2022-12-10T04:51:48;14.40;;;9.50;;
14849;SDS011;7517;48.400;11.770;2022-12-10T04:54:19;16.57;;;9.97;;
14849;SDS011;7517;48.400;11.770;2022-12-10T04:56:46;11.90;;;9.40;;
14849;SDS011;7517;48.400;11.770;2022-12-10T04:59:14;12.83;;;9.43;;
14849;SDS011;7517;48.400;11.770;2022-12-10T05:01:43;13.07;;;9.63;;
14849;SDS011;7517;48.400;11.770;2022-12-10T05:04:12;13.40;;;9.27;;
14849;SDS011;7517;48.400;11.770;2022-12-10T05:06:42;13.33;;;9.63;;
14849;SDS011;7517;48.400;11.770;2022-12-10T05:09:09;11.30;;;8.33;;
14849;SDS011;7517;48.400;11.770;2022-12-10T05:11:38;13.10;;;9.40;;
14849;SDS011;7517;48.400;11.770;2022-12-10T05:14:08;12.20;;;9.33;;
14849;SDS011;7517;48.400;11.770;2022-12-10T05:16:36;13.03;;;9.63;;
14849;SDS011;7517;48.400;11.770;2022-12-10T05:19:03;13.70;;;9.20;;
14849;SDS011;7517;48.400;11.770;2022-12-10T05:21:31;15.00;;;10.20;;
14849;SDS011;7517;48.400;11.770;2022-12-10T05:24:12;13.97;;;10.40;;
14849;SDS011;7517;48.400;11.770;2022-12-10T05:26:41;13.77;;;9.13;;
14849;SDS011;7517;48.400;11.770;2022-12-10T05:29:09;14.40;;;9.43;;
14849;SDS011;7517;48.400;11.770;2022-12-10T05:31:37;16.83;;;10.03;;
14849;SDS011;7517;48.400;11.770;2022-12-10T05:34:05;13.37;;;9.37;;
14849;SDS011;7517;48.400;11.770;2022-12-10T05:36:33;13.13;;;9.53;;
14849;SDS011;7517;48.400;11.770;2022-12-10T05:39:00;14.40;;;9.43;;
14849;SDS011;7517;48.400;11.770;2022-12-10T05:41:28;13.37;;;9.17;;
14849;SDS011;7517;48.400;11.770;2022-12-10T05:43:59;13.70;;;9.70;;
14849;SDS011;7517;48.400;11.770;2022-12-10T05:46:27;14.20;;;9.93;;
14849;SDS011;7517;48.400;11.770;2022-12-10T05:48:56;15.53;;;9.40;;
14849;SDS011;7517;48.400;11.770;2022-12-10T05:51:26;16.47;;;9.77;;
14849;SDS011;7517;48.400;11.770;2022-12-10T05:53:56;18.83;;;9.90;;
14849;SDS011;7517;48.400;11.770;2022-12-10T05:56:26;14.63;;;9.70;;
14849;SDS011;7517;48.400;11.770;2022-12-10T05:58:54;13.87;;;10.30;;
14849;SDS011;7517;48.400;11.770;2022-12-10T06:01:27;13.23;;;9.47;;
14849;SDS011;7517;48.400;11.770;2022-12-10T06:03:58;19.77;;;10.03;;
14849;SDS011;7517;48.400;11.770;2022-12-10T06:06:27;13.57;;;9.17;;
14849;SDS011;7517;48.400;11.770;2022-12-10T06:08:56;14.90;;;9.80;;
14849;SDS011;7517;48.400;11.770;2022-12-10T06:11:24;11.63;;;9.63;;
14849;SDS011;7517;48.400;11.770;2022-12-10T06:13:53;12.73;;;8.87;;
14849;SDS011;7517;48.400;11.770;2022-12-10T06:16:22;13.90;;;9.97;;
14849;SDS011;7517;48.400;11.770;2022-12-10T06:18:53;13.33;;;9.47;;
14849;SDS011;7517;48.400;11.770;2022-12-10T06:21:21;12.40;;;9.47;;
14849;SDS011;7517;48.400;11.770;2022-12-10T06:23:49;14.20;;;9.90;;
14849;SDS011;7517;48.400;11.770;2022-12-10T06:26:18;13.60;;;9.67;;
14849;SDS011;7517;48.400;11.770;2022-12-10T06:28:47;13.27;;;9.77;;
14849;SDS011;7517;48.400;11.770;2022-12-10T06:31:15;14.83;;;9.57;;
14849;SDS011;7517;48.400;11.770;2022-12-10T06:33:43;13.50;;;9.53;;
14849;SDS011;7517;48.400;11.770;2022-12-10T06:36:13;14.93;;;9.90;;
14849;SDS011;7517;48.400;11.770;2022-12-10T06:38:44;14.37;;;10.00;;
14849;SDS011;7517;48.400;11.770;2022-12-10T06:41:12;17.17;;;10.57;;
14849;SDS011;7517;48.400;11.770;2022-12-10T06:43:41;13.77;;;9.27;;
14849;SDS011;7517;48.400;11.770;2022-12-10T06:46:10;15.50;;;9.70;;
14849;SDS011;7517;48.400;11.770;2022-12-10T06:48:40;14.33;;;9.77;;
14849;SDS011;7517;48.400;11.770;2022-12-10T06:51:08;16.40;;;10.60;;
14849;SDS011;7517;48.400;11.770;2022-12-10T06:53:38;12.77;;;9.77;;
14849;SDS011;7517;48.400;11.770;2022-12-10T06:56:07;14.60;;;9.93;;
14849;SDS011;7517;48.400;11.770;2022-12-10T06:58:39;15.77;;;9.57;;
14849;SDS011;7517;48.400;11.770;2022-12-10T07:01:08;15.00;;;10.33;;
14849;SDS011;7517;48.400;11.770;2022-12-10T07:03:38;16.33;;;10.73;;
14849;SDS011;7517;48.400;11.770;2022-12-10T07:06:07;14.30;;;10.30;;
14849;SDS011;7517;48.400;11.770;2022-12-10T07:08:35;15.10;;;9.83;;
14849;SDS011;7517;48.400;11.770;2022-12-10T07:11:05;16.90;;;10.20;;
14849;SDS011;7517;48.400;11.770;2022-12-10T07:13:34;13.20;;;9.47;;
14849;SDS011;7517;48.400;11.770;2022-12-10T07:16:02;14.73;;;10.17;;
14849;SDS011;7517;48.400;11.770;2022-12-10T07:18:38;13.50;;;9.93;;
14849;SDS011;7517;48.400;11.770;2022-12-10T07:21:12;14.30;;;10.37;;
14849;SDS011;7517;48.400;11.770;2022-12-10T07:23:41;15.03;;;10.37;;
14849;SDS011;7517;48.400;11.770;2022-12-10T07:26:09;13.90;;;10.33;;
14849;SDS011;7517;48.400;11.770;2022-12-10T07:28:37;19.17;;;11.20;;
14849;SDS011;7517;48.400;11.770;2022-12-10T07:31:04;13.73;;;9.83;;
14849;SDS011;7517;48.400;11.770;2022-12-10T07:33:34;15.10;;;10.27;;
14849;SDS011;7517;48.400;11.770;2022-12-10T07:36:03;16.80;;;10.33;;
14849;SDS011;7517;48.400;11.770;2022-12-10T07:38:31;15.20;;;10.63;;
14849;SDS011;7517;48.400;11.770;2022-12-10T07:41:03;14.23;;;10.13;;
14849;SDS011;7517;48.400;11.770;2022-12-10T07:43:32;14.73;;;10.10;;
14849;SDS011;7517;48.400;11.770;2022-12-10T07:46:04;15.03;;;10.23;;
14849;SDS011;7517;48.400;11.770;2022-12-10T07:48:33;15.03;;;10.20;;
14849;SDS011;7517;48.400;11.770;2022-12-10T07:51:02;14.80;;;10.33;;
14849;SDS011;7517;48.400;11.770;2022-12-10T07:53:30;15.37;;;10.97;;
14849;SDS011;7517;48.400;11.770;2022-12-10T07:55:57;14.77;;;10.03;;
14849;SDS011;7517;48.400;11.770;2022-12-10T07:58:26;15.17;;;10.43;;
14849;SDS011;7517;48.400;11.770;2022-12-10T08:00:54;18.63;;;10.60;;
14849;SDS011;7517;48.400;11.770;2022-12-10T08:03:21;17.10;;;10.23;;
14849;SDS011;7517;48.400;11.770;2022-12-10T08:05:49;14.27;;;10.17;;
14849;SDS011;7517;48.400;11.770;2022-12-10T08:08:26;18.33;;;11.10;;
14849;SDS011;7517;48.400;11.770;2022-12-10T08:10:54;15.10;;;10.30;;
14849;SDS011;7517;48.400;11.770;2022-12-10T08:13:21;16.10;;;10.80;;
14849;SDS011;7517;48.400;11.770;2022-12-10T08:15:49;16.27;;;10.77;;
14849;SDS011;7517;48.400;11.770;2022-12-10T08:18:17;17.00;;;10.63;;
14849;SDS011;7517;48.400;11.770;2022-12-10T08:20:44;16.53;;;11.43;;
14849;SDS011;7517;48.400;11.770;2022-12-10T08:23:11;16.27;;;10.63;;
14849;SDS011;7517;48.400;11.770;2022-12-10T08:25:38;17.80;;;10.70;;
14849;SDS011;7517;48.400;11.770;2022-12-10T08:28:05;15.23;;;10.47;;
14849;SDS011;7517;48.400;11.770;2022-12-10T08:30:35;15.33;;;11.03;;
14849;SDS011;7517;48.400;11.770;2022-12-10T08:33:04;16.50;;;11.13;;
14849;SDS011;7517;48.400;11.770;2022-12-10T08:35:31;15.83;;;10.63;;
14849;SDS011;7517;48.400;11.770;2022-12-10T08:37:59;21.27;;;11.40;;
14849;SDS011;7517;48.400;11.770;2022-12-10T08:40:26;15.87;;;11.13;;
14849;SDS011;7517;48.400;11.770;2022-12-10T08:42:53;16.73;;;11.30;;
14849;SDS011;7517;48.400;11.770;2022-12-10T08:45:20;15.63;;;10.53;;
14849;SDS011;7517;48.400;11.770;2022-12-10T08:47:47;17.33;;;11.07;;
14849;SDS011;7517;48.400;11.770;2022-12-10T08:50:16;16.90;;;10.63;;
14849;SDS011;7517;48.400;11.770;2022-12-10T08:52:43;15.47;;;10.50;;
14849;SDS011;7517;48.400;11.770;2022-12-10T08:55:11;15.87;;;11.00;;
14849;SDS011;7517;48.400;11.770;2022-12-10T08:57:38;17.40;;;11.47;;
14849;SDS011;7517;48.400;11.770;2022-12-10T09:00:06;17.00;;;11.77;;
14849;SDS011;7517;48.400;11.770;2022-12-10T09:02:34;16.80;;;11.70;;
14849;SDS011;7517;48.400;11.770;2022-12-10T09:05:02;18.23;;;11.73;;
14849;SDS011;7517;48.400;11.770;2022-12-10T09:07:31;17.17;;;11.50;;
14849;SDS011;7517;48.400;11.770;2022-12-10T09:09:58;16.57;;;11.00;;
14849;SDS011;7517;48.400;11.770;2022-12-10T09:12:25;15.50;;;10.43;;
14849;SDS011;7517;48.400;11.770;2022-12-10T09:14:52;16.10;;;11.30;;
14849;SDS011;7517;48.400;11.770;2022-12-10T09:17:21;17.30;;;12.07;;
14849;SDS011;7517;48.400;11.770;2022-12-10T09:19:48;18.73;;;11.70;;
14849;SDS011;7517;48.400;11.770;2022-12-10T09:22:15;18.67;;;10.87;;
14849;SDS011;7517;48.400;11.770;2022-12-10T09:24:44;18.17;;;12.03;;
14849;SDS011;7517;48.400;11.770;2022-12-10T09:27:11;18.13;;;10.97;;
14849;SDS011;7517;48.400;11.770;2022-12-10T09:29:38;18.17;;;11.47;;
14849;SDS011;7517;48.400;11.770;2022-12-10T09:32:05;16.07;;;11.77;;
14849;SDS011;7517;48.400;11.770;2022-12-10T09:34:33;17.50;;;11.60;;
14849;SDS011;7517;48.400;11.770;2022-12-10T09:37:00;17.00;;;11.13;;
14849;SDS011;7517;48.400;11.770;2022-12-10T09:39:27;17.70;;;11.20;;
14849;SDS011;7517;48.400;11.770;2022-12-10T09:41:59;16.87;;;11.37;;
14849;SDS011;7517;48.400;11.770;2022-12-10T09:44:52;17.40;;;10.63;;
14849;SDS011;7517;48.400;11.770;2022-12-10T09:47:31;16.07;;;10.80;;
14849;SDS011;7517;48.400;11.770;2022-12-10T09:50:10;16.47;;;11.13;;
14849;SDS011;7517;48.400;11.770;2022-12-10T09:52:47;16.87;;;10.83;;
14849;SDS011;7517;48.400;11.770;2022-12-10T09:55:16;18.13;;;11.37;;
14849;SDS011;7517;48.400;11.770;2022-12-10T09:57:50;17.33;;;12.00;;
14849;SDS011;7517;48.400;11.770;2022-12-10T10:00:21;17.83;;;11.03;;
14849;SDS011;7517;48.400;11.770;2022-12-10T10:02:56;18.20;;;12.13;;
14849;SDS011;7517;48.400;11.770;2022-12-10T10:05:26;17.77;;;11.50;;
14849;SDS011;7517;48.400;11.770;2022-12-10T10:07:56;22.57;;;12.40;;
14849;SDS011;7517;48.400;11.770;2022-12-10T10:10:28;20.80;;;12.00;;
14849;SDS011;7517;48.400;11.770;2022-12-10T10:13:09;20.47;;;12.93;;
14849;SDS011;7517;48.400;11.770;2022-12-10T10:15:49;20.57;;;12.10;;
14849;SDS011;7517;48.400;11.770;2022-12-10T10:18:21;20.63;;;12.37;;
14849;SDS011;7517;48.400;11.770;2022-12-10T10:20:57;22.20;;;12.70;;
14849;SDS011;7517;48.400;11.770;2022-12-10T10:23:26;20.93;;;12.60;;
14849;SDS011;7517;48.400;11.770;2022-12-10T10:25:53;21.53;;;12.40;;
14849;SDS011;7517;48.400;11.770;2022-12-10T10:28:22;19.30;;;12.47;;
14849;SDS011;7517;48.400;11.770;2022-12-10T10:30:50;22.37;;;13.10;;
14849;SDS011;7517;48.400;11.770;2022-12-10T10:33:19;24.27;;;13.67;;
14849;SDS011;7517;48.400;11.770;2022-12-10T10:35:48;21.47;;;13.23;;
14849;SDS011;7517;48.400;11.770;2022-12-10T10:38:22;20.47;;;12.80;;
14849;SDS011;7517;48.400;11.770;2022-12-10T10:40:54;20.00;;;12.63;;
14849;SDS011;7517;48.400;11.770;2022-12-10T10:43:25;18.77;;;12.03;;
14849;SDS011;7517;48.400;11.770;2022-12-10T10:45:58;20.53;;;13.13;;
14849;SDS011;7517;48.400;11.770;2022-12-10T10:48:30;22.13;;;13.33;;
14849;SDS011;7517;48.400;11.770;2022-12-10T10:51:05;20.27;;;12.67;;
14849;SDS011;7517;48.400;11.770;2022-12-10T10:53:40;19.77;;;12.70;;
14849;SDS011;7517;48.400;11.770;2022-12-10T10:56:10;18.93;;;12.20;;
14849;SDS011;7517;48.400;11.770;2022-12-10T11:01:43;18.97;;;12.07;;
14849;SDS011;7517;48.400;11.770;2022-12-10T11:04:14;17.30;;;11.63;;
14849;SDS011;7517;48.400;11.770;2022-12-10T11:06:48;20.93;;;12.93;;
14849;SDS011;7517;48.400;11.770;2022-12-10T11:09:24;19.03;;;12.80;;
14849;SDS011;7517;48.400;11.770;2022-12-10T11:11:57;18.77;;;12.17;;
14849;SDS011;7517;48.400;11.770;2022-12-10T11:14:30;23.20;;;13.33;;
14849;SDS011;7517;48.400;11.770;2022-12-10T11:17:03;17.80;;;12.17;;
14849;SDS011;7517;48.400;11.770;2022-12-10T11:19:52;20.23;;;12.57;;
14849;SDS011;7517;48.400;11.770;2022-12-10T11:22:24;20.43;;;12.40;;
14849;SDS011;7517;48.400;11.770;2022-12-10T11:24:53;20.00;;;12.60;;
14849;SDS011;7517;48.400;11.770;2022-12-10T11:27:25;22.40;;;13.57;;
14849;SDS011;7517;48.400;11.770;2022-12-10T11:30:13;19.30;;;12.27;;
14849;SDS011;7517;48.400;11.770;2022-12-10T11:32:52;20.47;;;12.77;;
14849;SDS011;7517;48.400;11.770;2022-12-10T11:35:43;20.70;;;13.27;;
14849;SDS011;7517;48.400;11.770;2022-12-10T11:38:27;19.03;;;12.60;;
14849;SDS011;7517;48.400;11.770;2022-12-10T11:41:02;19.13;;;12.50;;
14849;SDS011;7517;48.400;11.770;2022-12-10T11:43:52;17.57;;;12.07;;
14849;SDS011;7517;48.400;11.770;2022-12-10T11:49:59;18.90;;;11.87;;
14849;SDS011;7517;48.400;11.770;2022-12-10T11:52:45;19.80;;;12.80;;
14849;SDS011;7517;48.400;11.770;2022-12-10T11:55:35;19.10;;;13.10;;
14849;SDS011;7517;48.400;11.770;2022-12-10T12:01:27;19.80;;;11.87;;
14849;SDS011;7517;48.400;11.770;2022-12-10T12:04:22;22.07;;;12.40;;
14849;SDS011;7517;48.400;11.770;2022-12-10T12:10:15;22.67;;;11.70;;
14849;SDS011;7517;48.400;11.770;2022-12-10T12:13:18;20.33;;;12.60;;
14849;SDS011;7517;48.400;11.770;2022-12-10T12:15:52;19.73;;;12.23;;
14849;SDS011;7517;48.400;11.770;2022-12-10T12:18:28;18.70;;;11.97;;
14849;SDS011;7517;48.400;11.770;2022-12-10T12:21:10;20.40;;;13.37;;
14849;SDS011;7517;48.400;11.770;2022-12-10T12:23:43;18.50;;;12.13;;
14849;SDS011;7517;48.400;11.770;2022-12-10T12:26:19;20.30;;;13.13;;
14849;SDS011;7517;48.400;11.770;2022-12-10T12:28:54;22.10;;;13.57;;
14849;SDS011;7517;48.400;11.770;2022-12-10T12:31:34;20.57;;;12.77;;
14849;SDS011;7517;48.400;11.770;2022-12-10T12:34:05;19.23;;;13.37;;
14849;SDS011;7517;48.400;11.770;2022-12-10T12:36:46;20.63;;;13.07;;
14849;SDS011;7517;48.400;11.770;2022-12-10T12:39:16;21.77;;;13.37;;
14849;SDS011;7517;48.400;11.770;2022-12-10T12:41:55;20.03;;;12.33;;
14849;SDS011;7517;48.400;11.770;2022-12-10T12:44:35;19.97;;;12.33;;
14849;SDS011;7517;48.400;11.770;2022-12-10T12:47:29;20.10;;;12.93;;
14849;SDS011;7517;48.400;11.770;2022-12-10T12:50:11;19.80;;;12.57;;
14849;SDS011;7517;48.400;11.770;2022-12-10T12:52:58;19.83;;;12.37;;
14849;SDS011;7517;48.400;11.770;2022-12-10T12:55:29;20.80;;;13.63;;
14849;SDS011;7517;48.400;11.770;2022-12-10T12:58:07;19.77;;;12.50;;
14849;SDS011;7517;48.400;11.770;2022-12-10T13:00:53;18.73;;;12.23;;
14849;SDS011;7517;48.400;11.770;2022-12-10T13:03:32;16.13;;;11.77;;
14849;SDS011;7517;48.400;11.770;2022-12-10T13:06:11;23.70;;;14.53;;
14849;SDS011;7517;48.400;11.770;2022-12-10T13:08:43;21.80;;;13.23;;
14849;SDS011;7517;48.400;11.770;2022-12-10T13:14:02;21.23;;;12.83;;
14849;SDS011;7517;48.400;11.770;2022-12-10T13:23:00;19.60;;;11.80;;
14849;SDS011;7517;48.400;11.770;2022-12-10T13:25:40;20.00;;;12.10;;
14849;SDS011;7517;48.400;11.770;2022-12-10T13:28:26;18.37;;;12.23;;
14849;SDS011;7517;48.400;11.770;2022-12-10T13:31:21;18.30;;;11.17;;
14849;SDS011;7517;48.400;11.770;2022-12-10T13:34:18;23.00;;;13.53;;
14849;SDS011;7517;48.400;11.770;2022-12-10T13:37:03;20.17;;;12.60;;
14849;SDS011;7517;48.400;11.770;2022-12-10T13:40:00;20.10;;;12.43;;
14849;SDS011;7517;48.400;11.770;2022-12-10T13:42:44;21.20;;;12.53;;
14849;SDS011;7517;48.400;11.770;2022-12-10T13:45:31;21.77;;;13.37;;
14849;SDS011;7517;48.400;11.770;2022-12-10T13:54:16;18.73;;;12.00;;
14849;SDS011;7517;48.400;11.770;2022-12-10T13:57:12;20.33;;;12.93;;
14849;SDS011;7517;48.400;11.770;2022-12-10T14:00:00;20.40;;;12.23;;
14849;SDS011;7517;48.400;11.770;2022-12-10T14:02:43;20.97;;;12.20;;
14849;SDS011;7517;48.400;11.770;2022-12-10T14:05:54;22.80;;;12.87;;
14849;SDS011;7517;48.400;11.770;2022-12-10T14:08:38;23.97;;;13.57;;
14849;SDS011;7517;48.400;11.770;2022-12-10T14:11:13;23.33;;;14.77;;
14849;SDS011;7517;48.400;11.770;2022-12-10T14:13:47;23.70;;;14.73;;
14849;SDS011;7517;48.400;11.770;2022-12-10T14:16:24;22.50;;;13.40;;
14849;SDS011;7517;48.400;11.770;2022-12-10T14:18:57;21.13;;;12.47;;
14849;SDS011;7517;48.400;11.770;2022-12-10T14:21:31;23.63;;;13.50;;
14849;SDS011;7517;48.400;11.770;2022-12-10T14:24:02;25.90;;;14.30;;
14849;SDS011;7517;48.400;11.770;2022-12-10T14:26:30;23.87;;;14.37;;
14849;SDS011;7517;48.400;11.770;2022-12-10T14:29:08;22.27;;;14.10;;
14849;SDS011;7517;48.400;11.770;2022-12-10T14:31:48;21.03;;;12.40;;
14849;SDS011;7517;48.400;11.770;2022-12-10T14:34:17;20.97;;;13.37;;
14849;SDS011;7517;48.400;11.770;2022-12-10T14:36:50;24.00;;;12.83;;
14849;SDS011;7517;48.400;11.770;2022-12-10T14:39:21;19.70;;;13.07;;
14849;SDS011;7517;48.400;11.770;2022-12-10T14:41:55;23.90;;;13.73;;
14849;SDS011;7517;48.400;11.770;2022-12-10T14:44:24;22.43;;;13.60;;
14849;SDS011;7517;48.400;11.770;2022-12-10T14:47:03;20.73;;;13.30;;
14849;SDS011;7517;48.400;11.770;2022-12-10T14:49:38;19.70;;;12.13;;
14849;SDS011;7517;48.400;11.770;2022-12-10T14:52:10;21.70;;;13.23;;
14849;SDS011;7517;48.400;11.770;2022-12-10T14:54:40;20.17;;;12.60;;
14849;SDS011;7517;48.400;11.770;2022-12-10T14:57:11;19.93;;;12.57;;
14849;SDS011;7517;48.400;11.770;2022-12-10T14:59:45;19.60;;;12.93;;
14849;SDS011;7517;48.400;11.770;2022-12-10T15:02:24;23.73;;;14.30;;
14849;SDS011;7517;48.400;11.770;2022-12-10T15:04:55;21.03;;;13.37;;
14849;SDS011;7517;48.400;11.770;2022-12-10T15:07:24;22.30;;;13.30;;
14849;SDS011;7517;48.400;11.770;2022-12-10T15:09:59;21.77;;;13.67;;
14849;SDS011;7517;48.400;11.770;2022-12-10T15:12:35;20.33;;;13.43;;
14849;SDS011;7517;48.400;11.770;2022-12-10T15:15:11;18.93;;;12.50;;
14849;SDS011;7517;48.400;11.770;2022-12-10T15:17:51;20.50;;;12.80;;
14849;SDS011;7517;48.400;11.770;2022-12-10T15:20:25;20.53;;;13.13;;
14849;SDS011;7517;48.400;11.770;2022-12-10T15:23:05;17.20;;;11.47;;
14849;SDS011;7517;48.400;11.770;2022-12-10T15:25:44;18.47;;;11.00;;
14849;SDS011;7517;48.400;11.770;2022-12-10T15:28:22;16.03;;;11.37;;